sensor_id;sensor_type;location;lat;lon;timestamp;P1;durP1;ratioP1;P2;durP2;ratioP2
6392;SDS011;3229;42.674;23.282;2022-10-20T00:02:04;14.93;;;12.40;;
6392;SDS011;3229;42.674;23.282;2022-10-20T00:04:32;12.50;;;11.17;;
6392;SDS011;3229;42.674;23.282;2022-10-20T00:06:59;12.80;;;11.43;;
6392;SDS011;3229;42.674;23.282;2022-10-20T00:09:26;15.03;;;11.27;;
6392;SDS011;3229;42.674;23.282;2022-10-20T00:11:53;14.00;;;11.93;;
6392;SDS011;3229;42.674;23.282;2022-10-20T00:14:20;12.80;;;11.47;;
6392;SDS011;3229;42.674;23.282;2022-10-20T00:16:47;16.43;;;11.53;;
6392;SDS011;3229;42.674;23.282;2022-10-20T00:19:14;13.27;;;11.60;;
6392;SDS011;3229;42.674;23.282;2022-10-20T00:21:42;12.43;;;11.13;;
6392;SDS011;3229;42.674;23.282;2022-10-20T00:24:09;12.37;;;11.07;;
6392;SDS011;3229;42.674;23.282;2022-10-20T00:26:36;14.13;;;10.47;;
6392;SDS011;3229;42.674;23.282;2022-10-20T00:29:04;13.20;;;11.47;;
6392;SDS011;3229;42.674;23.282;2022-10-20T00:31:30;15.10;;;11.53;;
6392;SDS011;3229;42.674;23.282;2022-10-20T00:33:57;13.97;;;11.30;;
6392;SDS011;3229;42.674;23.282;2022-10-20T00:36:24;11.93;;;10.70;;
6392;SDS011;3229;42.674;23.282;2022-10-20T00:38:58;12.70;;;10.73;;
6392;SDS011;3229;42.674;23.282;2022-10-20T00:41:26;11.33;;;10.23;;
6392;SDS011;3229;42.674;23.282;2022-10-20T00:43:54;12.47;;;10.50;;
6392;SDS011;3229;42.674;23.282;2022-10-20T00:46:23;12.03;;;10.07;;
6392;SDS011;3229;42.674;23.282;2022-10-20T00:48:52;11.13;;;9.97;;
6392;SDS011;3229;42.674;23.282;2022-10-20T00:51:24;11.30;;;10.17;;
6392;SDS011;3229;42.674;23.282;2022-10-20T00:53:54;11.90;;;10.03;;
6392;SDS011;3229;42.674;23.282;2022-10-20T00:56:27;10.97;;;9.43;;
6392;SDS011;3229;42.674;23.282;2022-10-20T00:58:54;12.07;;;9.80;;
6392;SDS011;3229;42.674;23.282;2022-10-20T01:01:21;11.47;;;9.33;;
6392;SDS011;3229;42.674;23.282;2022-10-20T01:03:49;11.43;;;10.27;;
6392;SDS011;3229;42.674;23.282;2022-10-20T01:06:18;10.40;;;9.40;;
6392;SDS011;3229;42.674;23.282;2022-10-20T01:08:46;10.03;;;9.07;;
6392;SDS011;3229;42.674;23.282;2022-10-20T01:11:17;10.73;;;9.03;;
6392;SDS011;3229;42.674;23.282;2022-10-20T01:14:08;9.90;;;8.80;;
6392;SDS011;3229;42.674;23.282;2022-10-20T01:16:45;10.87;;;9.00;;
6392;SDS011;3229;42.674;23.282;2022-10-20T01:19:31;9.50;;;8.60;;
6392;SDS011;3229;42.674;23.282;2022-10-20T01:22:12;11.20;;;8.70;;
6392;SDS011;3229;42.674;23.282;2022-10-20T01:25:00;12.40;;;8.50;;
6392;SDS011;3229;42.674;23.282;2022-10-20T01:27:37;9.43;;;8.40;;
6392;SDS011;3229;42.674;23.282;2022-10-20T01:30:08;12.93;;;8.00;;
6392;SDS011;3229;42.674;23.282;2022-10-20T01:32:50;9.77;;;8.40;;
6392;SDS011;3229;42.674;23.282;2022-10-20T01:35:22;9.07;;;7.97;;
6392;SDS011;3229;42.674;23.282;2022-10-20T01:38:00;8.90;;;8.00;;
6392;SDS011;3229;42.674;23.282;2022-10-20T01:40:33;9.03;;;8.13;;
6392;SDS011;3229;42.674;23.282;2022-10-20T01:43:08;9.20;;;8.20;;
6392;SDS011;3229;42.674;23.282;2022-10-20T01:45:39;8.67;;;7.30;;
6392;SDS011;3229;42.674;23.282;2022-10-20T01:48:11;8.93;;;8.03;;
6392;SDS011;3229;42.674;23.282;2022-10-20T01:50:39;9.93;;;8.93;;
6392;SDS011;3229;42.674;23.282;2022-10-20T01:53:08;9.47;;;8.30;;
6392;SDS011;3229;42.674;23.282;2022-10-20T01:55:35;9.17;;;7.37;;
6392;SDS011;3229;42.674;23.282;2022-10-20T02:01:19;9.57;;;7.87;;
6392;SDS011;3229;42.674;23.282;2022-10-20T02:03:56;8.23;;;7.43;;
6392;SDS011;3229;42.674;23.282;2022-10-20T02:06:29;9.03;;;7.47;;
6392;SDS011;3229;42.674;23.282;2022-10-20T02:09:03;8.17;;;7.20;;
6392;SDS011;3229;42.674;23.282;2022-10-20T02:11:37;7.83;;;7.10;;
6392;SDS011;3229;42.674;23.282;2022-10-20T02:14:09;7.93;;;7.13;;
6392;SDS011;3229;42.674;23.282;2022-10-20T02:16:42;7.57;;;6.77;;
6392;SDS011;3229;42.674;23.282;2022-10-20T02:19:13;8.87;;;6.93;;
6392;SDS011;3229;42.674;23.282;2022-10-20T02:21:44;11.80;;;8.00;;
6392;SDS011;3229;42.674;23.282;2022-10-20T02:24:12;8.13;;;7.33;;
6392;SDS011;3229;42.674;23.282;2022-10-20T02:26:41;10.23;;;6.90;;
6392;SDS011;3229;42.674;23.282;2022-10-20T02:29:10;8.07;;;7.37;;
6392;SDS011;3229;42.674;23.282;2022-10-20T02:31:41;10.53;;;7.27;;
6392;SDS011;3229;42.674;23.282;2022-10-20T02:34:09;8.97;;;7.83;;
6392;SDS011;3229;42.674;23.282;2022-10-20T02:36:40;9.10;;;7.00;;
6392;SDS011;3229;42.674;23.282;2022-10-20T02:39:08;7.90;;;7.10;;
6392;SDS011;3229;42.674;23.282;2022-10-20T02:41:36;7.80;;;7.03;;
6392;SDS011;3229;42.674;23.282;2022-10-20T02:44:03;8.20;;;7.43;;
6392;SDS011;3229;42.674;23.282;2022-10-20T02:46:30;8.93;;;7.70;;
6392;SDS011;3229;42.674;23.282;2022-10-20T02:48:58;8.20;;;7.40;;
6392;SDS011;3229;42.674;23.282;2022-10-20T02:51:25;8.57;;;7.77;;
6392;SDS011;3229;42.674;23.282;2022-10-20T02:53:52;8.13;;;7.03;;
6392;SDS011;3229;42.674;23.282;2022-10-20T02:56:19;9.03;;;7.90;;
6392;SDS011;3229;42.674;23.282;2022-10-20T02:58:47;13.00;;;7.63;;
6392;SDS011;3229;42.674;23.282;2022-10-20T03:01:14;8.13;;;7.27;;
6392;SDS011;3229;42.674;23.282;2022-10-20T03:03:41;7.60;;;6.90;;
6392;SDS011;3229;42.674;23.282;2022-10-20T03:06:10;8.40;;;6.97;;
6392;SDS011;3229;42.674;23.282;2022-10-20T03:08:38;8.33;;;7.47;;
6392;SDS011;3229;42.674;23.282;2022-10-20T03:11:05;10.30;;;7.67;;
6392;SDS011;3229;42.674;23.282;2022-10-20T03:13:33;13.50;;;7.37;;
6392;SDS011;3229;42.674;23.282;2022-10-20T03:16:00;8.53;;;7.73;;
6392;SDS011;3229;42.674;23.282;2022-10-20T03:18:27;8.03;;;7.23;;
6392;SDS011;3229;42.674;23.282;2022-10-20T03:20:54;8.03;;;7.23;;
6392;SDS011;3229;42.674;23.282;2022-10-20T03:23:23;9.17;;;8.13;;
6392;SDS011;3229;42.674;23.282;2022-10-20T03:25:49;8.70;;;7.50;;
6392;SDS011;3229;42.674;23.282;2022-10-20T03:28:16;9.27;;;7.23;;
6392;SDS011;3229;42.674;23.282;2022-10-20T03:30:43;7.40;;;6.70;;
6392;SDS011;3229;42.674;23.282;2022-10-20T03:33:11;8.40;;;7.03;;
6392;SDS011;3229;42.674;23.282;2022-10-20T03:35:38;8.00;;;7.07;;
6392;SDS011;3229;42.674;23.282;2022-10-20T03:38:05;7.63;;;6.83;;
6392;SDS011;3229;42.674;23.282;2022-10-20T03:40:40;7.97;;;7.17;;
6392;SDS011;3229;42.674;23.282;2022-10-20T03:43:08;8.87;;;6.97;;
6392;SDS011;3229;42.674;23.282;2022-10-20T03:45:34;7.97;;;7.17;;
6392;SDS011;3229;42.674;23.282;2022-10-20T03:48:02;9.90;;;6.97;;
6392;SDS011;3229;42.674;23.282;2022-10-20T03:50:29;8.20;;;7.40;;
6392;SDS011;3229;42.674;23.282;2022-10-20T03:52:55;8.63;;;7.00;;
6392;SDS011;3229;42.674;23.282;2022-10-20T03:55:22;8.17;;;7.37;;
6392;SDS011;3229;42.674;23.282;2022-10-20T03:57:50;8.77;;;7.47;;
6392;SDS011;3229;42.674;23.282;2022-10-20T04:00:17;8.00;;;7.20;;
6392;SDS011;3229;42.674;23.282;2022-10-20T04:02:44;8.10;;;6.80;;
6392;SDS011;3229;42.674;23.282;2022-10-20T04:05:12;8.13;;;7.13;;
6392;SDS011;3229;42.674;23.282;2022-10-20T04:07:42;10.90;;;7.70;;
6392;SDS011;3229;42.674;23.282;2022-10-20T04:10:09;12.80;;;7.67;;
6392;SDS011;3229;42.674;23.282;2022-10-20T04:12:38;8.73;;;7.83;;
6392;SDS011;3229;42.674;23.282;2022-10-20T04:15:09;9.30;;;7.57;;
6392;SDS011;3229;42.674;23.282;2022-10-20T04:17:39;7.63;;;6.83;;
6392;SDS011;3229;42.674;23.282;2022-10-20T04:20:06;12.50;;;8.10;;
6392;SDS011;3229;42.674;23.282;2022-10-20T04:22:36;8.07;;;7.27;;
6392;SDS011;3229;42.674;23.282;2022-10-20T04:25:04;11.77;;;7.13;;
6392;SDS011;3229;42.674;23.282;2022-10-20T04:27:31;8.20;;;7.03;;
6392;SDS011;3229;42.674;23.282;2022-10-20T04:29:58;9.17;;;7.47;;
6392;SDS011;3229;42.674;23.282;2022-10-20T04:32:30;8.30;;;7.37;;
6392;SDS011;3229;42.674;23.282;2022-10-20T04:34:59;9.10;;;6.97;;
6392;SDS011;3229;42.674;23.282;2022-10-20T04:37:27;9.40;;;7.60;;
6392;SDS011;3229;42.674;23.282;2022-10-20T04:39:53;8.17;;;7.37;;
6392;SDS011;3229;42.674;23.282;2022-10-20T04:42:21;7.70;;;6.90;;
6392;SDS011;3229;42.674;23.282;2022-10-20T04:44:48;10.70;;;6.73;;
6392;SDS011;3229;42.674;23.282;2022-10-20T04:47:15;7.87;;;7.03;;
6392;SDS011;3229;42.674;23.282;2022-10-20T04:49:44;9.50;;;7.20;;
6392;SDS011;3229;42.674;23.282;2022-10-20T04:52:11;8.23;;;7.27;;
6392;SDS011;3229;42.674;23.282;2022-10-20T04:54:38;9.33;;;7.17;;
6392;SDS011;3229;42.674;23.282;2022-10-20T04:57:05;30.87;;;7.70;;
6392;SDS011;3229;42.674;23.282;2022-10-20T04:59:34;7.60;;;6.73;;
6392;SDS011;3229;42.674;23.282;2022-10-20T05:02:02;17.33;;;6.93;;
6392;SDS011;3229;42.674;23.282;2022-10-20T05:04:29;8.47;;;6.50;;
6392;SDS011;3229;42.674;23.282;2022-10-20T05:06:57;12.77;;;7.70;;
6392;SDS011;3229;42.674;23.282;2022-10-20T05:09:24;10.03;;;6.53;;
6392;SDS011;3229;42.674;23.282;2022-10-20T05:11:51;9.10;;;6.60;;
6392;SDS011;3229;42.674;23.282;2022-10-20T05:14:19;9.63;;;7.33;;
6392;SDS011;3229;42.674;23.282;2022-10-20T05:16:46;8.63;;;7.10;;
6392;SDS011;3229;42.674;23.282;2022-10-20T05:19:13;8.97;;;7.33;;
6392;SDS011;3229;42.674;23.282;2022-10-20T05:21:40;11.47;;;6.33;;
6392;SDS011;3229;42.674;23.282;2022-10-20T05:24:11;7.47;;;6.77;;
6392;SDS011;3229;42.674;23.282;2022-10-20T05:26:40;18.37;;;7.53;;
6392;SDS011;3229;42.674;23.282;2022-10-20T05:29:08;10.87;;;7.17;;
6392;SDS011;3229;42.674;23.282;2022-10-20T05:31:37;7.50;;;6.80;;
6392;SDS011;3229;42.674;23.282;2022-10-20T05:34:05;14.67;;;6.53;;
6392;SDS011;3229;42.674;23.282;2022-10-20T05:36:32;9.90;;;7.30;;
6392;SDS011;3229;42.674;23.282;2022-10-20T05:38:59;10.57;;;7.20;;
6392;SDS011;3229;42.674;23.282;2022-10-20T05:41:28;8.53;;;6.50;;
6392;SDS011;3229;42.674;23.282;2022-10-20T05:43:57;7.97;;;6.73;;
6392;SDS011;3229;42.674;23.282;2022-10-20T05:46:26;9.53;;;6.47;;
6392;SDS011;3229;42.674;23.282;2022-10-20T05:48:54;8.13;;;6.33;;
6392;SDS011;3229;42.674;23.282;2022-10-20T05:51:23;8.03;;;6.47;;
6392;SDS011;3229;42.674;23.282;2022-10-20T05:53:53;8.00;;;7.17;;
6392;SDS011;3229;42.674;23.282;2022-10-20T05:56:21;16.33;;;6.77;;
6392;SDS011;3229;42.674;23.282;2022-10-20T05:58:49;10.00;;;6.70;;
6392;SDS011;3229;42.674;23.282;2022-10-20T06:01:17;7.17;;;6.53;;
6392;SDS011;3229;42.674;23.282;2022-10-20T06:03:47;6.80;;;6.10;;
6392;SDS011;3229;42.674;23.282;2022-10-20T06:06:15;7.43;;;6.73;;
6392;SDS011;3229;42.674;23.282;2022-10-20T06:08:43;7.23;;;6.23;;
6392;SDS011;3229;42.674;23.282;2022-10-20T06:11:11;7.03;;;6.33;;
6392;SDS011;3229;42.674;23.282;2022-10-20T06:13:39;7.57;;;6.20;;
6392;SDS011;3229;42.674;23.282;2022-10-20T06:16:09;7.13;;;6.00;;
6392;SDS011;3229;42.674;23.282;2022-10-20T06:18:37;7.10;;;6.03;;
6392;SDS011;3229;42.674;23.282;2022-10-20T06:21:05;9.13;;;6.40;;
6392;SDS011;3229;42.674;23.282;2022-10-20T06:23:34;8.13;;;6.67;;
6392;SDS011;3229;42.674;23.282;2022-10-20T06:26:02;7.13;;;5.70;;
6392;SDS011;3229;42.674;23.282;2022-10-20T06:28:30;9.07;;;6.20;;
6392;SDS011;3229;42.674;23.282;2022-10-20T06:30:58;7.57;;;5.33;;
6392;SDS011;3229;42.674;23.282;2022-10-20T06:33:28;6.93;;;6.07;;
6392;SDS011;3229;42.674;23.282;2022-10-20T06:35:57;6.00;;;5.38;;
6392;SDS011;3229;42.674;23.282;2022-10-20T06:38:25;6.00;;;5.30;;
6392;SDS011;3229;42.674;23.282;2022-10-20T06:40:52;6.85;;;5.50;;
6392;SDS011;3229;42.674;23.282;2022-10-20T06:43:19;7.97;;;5.72;;
6392;SDS011;3229;42.674;23.282;2022-10-20T06:45:52;6.53;;;5.00;;
6392;SDS011;3229;42.674;23.282;2022-10-20T06:48:19;6.90;;;5.38;;
6392;SDS011;3229;42.674;23.282;2022-10-20T06:50:48;6.15;;;5.35;;
6392;SDS011;3229;42.674;23.282;2022-10-20T06:53:15;4.95;;;4.45;;
6392;SDS011;3229;42.674;23.282;2022-10-20T06:55:42;6.85;;;5.28;;
6392;SDS011;3229;42.674;23.282;2022-10-20T06:58:09;6.53;;;5.10;;
6392;SDS011;3229;42.674;23.282;2022-10-20T07:00:35;5.70;;;5.10;;
6392;SDS011;3229;42.674;23.282;2022-10-20T07:03:02;8.18;;;5.32;;
6392;SDS011;3229;42.674;23.282;2022-10-20T07:05:29;6.03;;;5.35;;
6392;SDS011;3229;42.674;23.282;2022-10-20T07:07:57;5.65;;;5.15;;
6392;SDS011;3229;42.674;23.282;2022-10-20T07:10:24;6.47;;;4.85;;
6392;SDS011;3229;42.674;23.282;2022-10-20T07:12:51;5.18;;;4.68;;
6392;SDS011;3229;42.674;23.282;2022-10-20T07:15:18;7.97;;;5.30;;
6392;SDS011;3229;42.674;23.282;2022-10-20T07:17:45;5.85;;;4.88;;
6392;SDS011;3229;42.674;23.282;2022-10-20T07:20:13;5.70;;;4.55;;
6392;SDS011;3229;42.674;23.282;2022-10-20T07:22:39;5.75;;;5.18;;
6392;SDS011;3229;42.674;23.282;2022-10-20T07:25:08;5.60;;;4.93;;
6392;SDS011;3229;42.674;23.282;2022-10-20T07:27:35;5.68;;;5.05;;
6392;SDS011;3229;42.674;23.282;2022-10-20T07:30:02;5.10;;;4.60;;
6392;SDS011;3229;42.674;23.282;2022-10-20T07:32:30;6.30;;;5.15;;
6392;SDS011;3229;42.674;23.282;2022-10-20T07:34:57;5.78;;;5.15;;
6392;SDS011;3229;42.674;23.282;2022-10-20T07:37:24;5.45;;;4.95;;
6392;SDS011;3229;42.674;23.282;2022-10-20T07:39:50;5.05;;;4.55;;
6392;SDS011;3229;42.674;23.282;2022-10-20T07:42:19;7.45;;;5.60;;
6392;SDS011;3229;42.674;23.282;2022-10-20T07:44:45;5.28;;;4.78;;
6392;SDS011;3229;42.674;23.282;2022-10-20T07:47:12;6.07;;;5.45;;
6392;SDS011;3229;42.674;23.282;2022-10-20T07:49:39;5.78;;;5.10;;
6392;SDS011;3229;42.674;23.282;2022-10-20T07:52:06;5.13;;;4.72;;
6392;SDS011;3229;42.674;23.282;2022-10-20T07:54:33;5.70;;;5.20;;
6392;SDS011;3229;42.674;23.282;2022-10-20T07:56:59;5.28;;;4.47;;
6392;SDS011;3229;42.674;23.282;2022-10-20T07:59:28;7.68;;;5.38;;
6392;SDS011;3229;42.674;23.282;2022-10-20T08:01:55;5.53;;;5.13;;
6392;SDS011;3229;42.674;23.282;2022-10-20T08:04:22;6.00;;;5.13;;
6392;SDS011;3229;42.674;23.282;2022-10-20T08:06:48;5.75;;;4.90;;
6392;SDS011;3229;42.674;23.282;2022-10-20T08:09:15;5.75;;;5.25;;
6392;SDS011;3229;42.674;23.282;2022-10-20T08:11:42;5.05;;;4.47;;
6392;SDS011;3229;42.674;23.282;2022-10-20T08:14:09;5.60;;;4.70;;
6392;SDS011;3229;42.674;23.282;2022-10-20T08:16:37;5.90;;;5.40;;
6392;SDS011;3229;42.674;23.282;2022-10-20T08:19:04;5.68;;;5.18;;
6392;SDS011;3229;42.674;23.282;2022-10-20T08:21:31;5.88;;;4.95;;
6392;SDS011;3229;42.674;23.282;2022-10-20T08:23:58;6.03;;;5.53;;
6392;SDS011;3229;42.674;23.282;2022-10-20T08:26:26;5.15;;;4.75;;
6392;SDS011;3229;42.674;23.282;2022-10-20T08:28:53;5.55;;;5.07;;
6392;SDS011;3229;42.674;23.282;2022-10-20T08:31:21;6.35;;;5.43;;
6392;SDS011;3229;42.674;23.282;2022-10-20T08:33:49;5.50;;;5.00;;
6392;SDS011;3229;42.674;23.282;2022-10-20T08:36:16;7.20;;;5.47;;
6392;SDS011;3229;42.674;23.282;2022-10-20T08:38:43;6.07;;;4.68;;
6392;SDS011;3229;42.674;23.282;2022-10-20T08:41:13;7.97;;;5.10;;
6392;SDS011;3229;42.674;23.282;2022-10-20T08:43:41;6.85;;;4.95;;
6392;SDS011;3229;42.674;23.282;2022-10-20T08:46:11;6.90;;;5.20;;
6392;SDS011;3229;42.674;23.282;2022-10-20T08:48:39;7.10;;;5.10;;
6392;SDS011;3229;42.674;23.282;2022-10-20T08:51:10;7.13;;;5.28;;
6392;SDS011;3229;42.674;23.282;2022-10-20T08:53:44;6.10;;;5.20;;
6392;SDS011;3229;42.674;23.282;2022-10-20T08:56:12;4.95;;;4.55;;
6392;SDS011;3229;42.674;23.282;2022-10-20T08:58:41;4.50;;;4.10;;
6392;SDS011;3229;42.674;23.282;2022-10-20T09:01:13;5.80;;;4.35;;
6392;SDS011;3229;42.674;23.282;2022-10-20T09:03:44;5.63;;;4.63;;
6392;SDS011;3229;42.674;23.282;2022-10-20T09:06:16;4.75;;;4.32;;
6392;SDS011;3229;42.674;23.282;2022-10-20T09:08:43;5.55;;;4.95;;
6392;SDS011;3229;42.674;23.282;2022-10-20T09:11:13;6.05;;;4.60;;
6392;SDS011;3229;42.674;23.282;2022-10-20T09:13:42;8.02;;;4.43;;
6392;SDS011;3229;42.674;23.282;2022-10-20T09:16:11;6.40;;;4.38;;
6392;SDS011;3229;42.674;23.282;2022-10-20T09:18:40;5.38;;;4.18;;
6392;SDS011;3229;42.674;23.282;2022-10-20T09:21:10;5.10;;;4.30;;
6392;SDS011;3229;42.674;23.282;2022-10-20T09:23:45;4.70;;;4.20;;
6392;SDS011;3229;42.674;23.282;2022-10-20T09:26:17;4.97;;;4.35;;
6392;SDS011;3229;42.674;23.282;2022-10-20T09:28:46;6.45;;;4.32;;
6392;SDS011;3229;42.674;23.282;2022-10-20T09:31:24;4.30;;;3.90;;
6392;SDS011;3229;42.674;23.282;2022-10-20T09:33:57;4.32;;;3.92;;
6392;SDS011;3229;42.674;23.282;2022-10-20T09:36:25;4.70;;;4.30;;
6392;SDS011;3229;42.674;23.282;2022-10-20T09:38:57;4.45;;;4.05;;
6392;SDS011;3229;42.674;23.282;2022-10-20T09:41:25;6.00;;;3.70;;
6392;SDS011;3229;42.674;23.282;2022-10-20T09:43:57;9.63;;;4.38;;
6392;SDS011;3229;42.674;23.282;2022-10-20T09:46:26;4.50;;;3.97;;
6392;SDS011;3229;42.674;23.282;2022-10-20T09:48:55;4.45;;;4.05;;
6392;SDS011;3229;42.674;23.282;2022-10-20T09:51:23;5.68;;;3.72;;
6392;SDS011;3229;42.674;23.282;2022-10-20T09:53:53;3.53;;;3.22;;
6392;SDS011;3229;42.674;23.282;2022-10-20T09:56:26;3.63;;;3.33;;
6392;SDS011;3229;42.674;23.282;2022-10-20T09:58:55;7.32;;;4.13;;
6392;SDS011;3229;42.674;23.282;2022-10-20T10:01:23;5.63;;;3.45;;
6392;SDS011;3229;42.674;23.282;2022-10-20T10:03:50;4.10;;;3.53;;
6392;SDS011;3229;42.674;23.282;2022-10-20T10:06:27;5.60;;;3.55;;
6392;SDS011;3229;42.674;23.282;2022-10-20T10:08:57;3.50;;;3.20;;
6392;SDS011;3229;42.674;23.282;2022-10-20T10:11:30;3.95;;;3.63;;
6392;SDS011;3229;42.674;23.282;2022-10-20T10:13:59;5.60;;;3.38;;
6392;SDS011;3229;42.674;23.282;2022-10-20T10:16:27;3.70;;;3.40;;
6392;SDS011;3229;42.674;23.282;2022-10-20T10:19:04;3.70;;;3.28;;
6392;SDS011;3229;42.674;23.282;2022-10-20T10:21:41;7.38;;;3.90;;
6392;SDS011;3229;42.674;23.282;2022-10-20T10:24:23;4.50;;;3.22;;
6392;SDS011;3229;42.674;23.282;2022-10-20T10:27:00;4.15;;;3.63;;
6392;SDS011;3229;42.674;23.282;2022-10-20T10:29:28;3.95;;;3.53;;
6392;SDS011;3229;42.674;23.282;2022-10-20T10:31:57;3.42;;;3.10;;
6392;SDS011;3229;42.674;23.282;2022-10-20T10:37:27;5.28;;;3.40;;
6392;SDS011;3229;42.674;23.282;2022-10-20T10:39:56;6.10;;;3.60;;
6392;SDS011;3229;42.674;23.282;2022-10-20T10:42:37;6.43;;;3.47;;
6392;SDS011;3229;42.674;23.282;2022-10-20T10:45:29;5.05;;;3.58;;
6392;SDS011;3229;42.674;23.282;2022-10-20T10:48:12;4.30;;;3.30;;
6392;SDS011;3229;42.674;23.282;2022-10-20T10:50:56;2.85;;;2.58;;
6392;SDS011;3229;42.674;23.282;2022-10-20T10:53:32;3.33;;;3.05;;
6392;SDS011;3229;42.674;23.282;2022-10-20T10:56:12;3.67;;;3.38;;
6392;SDS011;3229;42.674;23.282;2022-10-20T10:58:51;4.80;;;2.92;;
6392;SDS011;3229;42.674;23.282;2022-10-20T11:01:37;4.65;;;3.70;;
6392;SDS011;3229;42.674;23.282;2022-10-20T11:04:28;3.30;;;3.00;;
6392;SDS011;3229;42.674;23.282;2022-10-20T11:07:11;5.50;;;3.00;;
6392;SDS011;3229;42.674;23.282;2022-10-20T11:09:55;4.07;;;3.67;;
6392;SDS011;3229;42.674;23.282;2022-10-20T11:12:44;3.40;;;3.08;;
6392;SDS011;3229;42.674;23.282;2022-10-20T11:15:32;4.43;;;3.63;;
6392;SDS011;3229;42.674;23.282;2022-10-20T11:18:11;6.22;;;3.78;;
6392;SDS011;3229;42.674;23.282;2022-10-20T11:20:45;3.35;;;3.05;;
6392;SDS011;3229;42.674;23.282;2022-10-20T11:23:41;3.30;;;3.10;;
6392;SDS011;3229;42.674;23.282;2022-10-20T11:26:18;3.08;;;2.80;;
6392;SDS011;3229;42.674;23.282;2022-10-20T11:28:50;2.85;;;2.65;;
6392;SDS011;3229;42.674;23.282;2022-10-20T11:31:25;3.20;;;2.90;;
6392;SDS011;3229;42.674;23.282;2022-10-20T11:33:56;3.60;;;3.20;;
6392;SDS011;3229;42.674;23.282;2022-10-20T11:36:31;3.38;;;3.08;;
6392;SDS011;3229;42.674;23.282;2022-10-20T11:39:02;3.53;;;3.13;;
6392;SDS011;3229;42.674;23.282;2022-10-20T11:41:31;3.53;;;3.22;;
6392;SDS011;3229;42.674;23.282;2022-10-20T11:44:05;7.25;;;3.47;;
6392;SDS011;3229;42.674;23.282;2022-10-20T11:46:38;3.22;;;2.92;;
6392;SDS011;3229;42.674;23.282;2022-10-20T11:49:09;3.22;;;3.00;;
6392;SDS011;3229;42.674;23.282;2022-10-20T11:54:38;3.88;;;2.88;;
6392;SDS011;3229;42.674;23.282;2022-10-20T11:57:19;3.22;;;2.90;;
6392;SDS011;3229;42.674;23.282;2022-10-20T11:59:58;5.57;;;3.20;;
6392;SDS011;3229;42.674;23.282;2022-10-20T12:02:50;3.60;;;3.30;;
6392;SDS011;3229;42.674;23.282;2022-10-20T12:05:48;3.72;;;3.40;;
6392;SDS011;3229;42.674;23.282;2022-10-20T12:08:42;4.72;;;3.08;;
6392;SDS011;3229;42.674;23.282;2022-10-20T12:11:24;4.07;;;3.67;;
6392;SDS011;3229;42.674;23.282;2022-10-20T12:13:57;3.85;;;3.30;;
6392;SDS011;3229;42.674;23.282;2022-10-20T12:19:45;3.50;;;3.20;;
6392;SDS011;3229;42.674;23.282;2022-10-20T12:25:14;3.67;;;3.10;;
6392;SDS011;3229;42.674;23.282;2022-10-20T12:27:44;3.85;;;3.28;;
6392;SDS011;3229;42.674;23.282;2022-10-20T12:33:15;5.32;;;3.20;;
6392;SDS011;3229;42.674;23.282;2022-10-20T12:38:37;3.92;;;3.30;;
6392;SDS011;3229;42.674;23.282;2022-10-20T12:41:05;3.40;;;3.10;;
6392;SDS011;3229;42.674;23.282;2022-10-20T12:43:39;4.78;;;2.90;;
6392;SDS011;3229;42.674;23.282;2022-10-20T12:46:18;3.60;;;3.30;;
6392;SDS011;3229;42.674;23.282;2022-10-20T12:48:48;3.53;;;3.25;;
6392;SDS011;3229;42.674;23.282;2022-10-20T12:51:28;3.00;;;2.80;;
6392;SDS011;3229;42.674;23.282;2022-10-20T12:54:01;3.40;;;3.10;;
6392;SDS011;3229;42.674;23.282;2022-10-20T12:56:35;3.35;;;3.08;;
6392;SDS011;3229;42.674;23.282;2022-10-20T13:05:26;4.10;;;3.70;;
6392;SDS011;3229;42.674;23.282;2022-10-20T13:08:25;3.70;;;3.28;;
6392;SDS011;3229;42.674;23.282;2022-10-20T13:10:54;3.72;;;3.28;;
6392;SDS011;3229;42.674;23.282;2022-10-20T13:13:42;3.78;;;3.38;;
6392;SDS011;3229;42.674;23.282;2022-10-20T13:16:19;4.15;;;3.28;;
6392;SDS011;3229;42.674;23.282;2022-10-20T13:18:48;4.00;;;3.50;;
6392;SDS011;3229;42.674;23.282;2022-10-20T13:21:31;3.70;;;3.40;;
6392;SDS011;3229;42.674;23.282;2022-10-20T13:24:02;3.33;;;3.03;;
6392;SDS011;3229;42.674;23.282;2022-10-20T13:26:45;3.50;;;3.20;;
6392;SDS011;3229;42.674;23.282;2022-10-20T13:29:19;3.77;;;3.33;;
6392;SDS011;3229;42.674;23.282;2022-10-20T13:31:51;3.83;;;3.30;;
6392;SDS011;3229;42.674;23.282;2022-10-20T13:34:29;4.07;;;3.23;;
6392;SDS011;3229;42.674;23.282;2022-10-20T13:37:04;3.80;;;3.40;;
6392;SDS011;3229;42.674;23.282;2022-10-20T13:39:44;2.85;;;2.65;;
6392;SDS011;3229;42.674;23.282;2022-10-20T13:42:24;3.60;;;3.30;;
6392;SDS011;3229;42.674;23.282;2022-10-20T13:45:05;4.75;;;3.17;;
6392;SDS011;3229;42.674;23.282;2022-10-20T13:47:46;3.03;;;2.75;;
6392;SDS011;3229;42.674;23.282;2022-10-20T13:50:19;6.73;;;3.10;;
6392;SDS011;3229;42.674;23.282;2022-10-20T13:52:49;3.30;;;3.00;;
6392;SDS011;3229;42.674;23.282;2022-10-20T13:55:20;3.60;;;3.30;;
6392;SDS011;3229;42.674;23.282;2022-10-20T13:57:52;4.03;;;3.30;;
6392;SDS011;3229;42.674;23.282;2022-10-20T14:00:22;4.50;;;3.37;;
6392;SDS011;3229;42.674;23.282;2022-10-20T14:02:53;4.87;;;3.30;;
6392;SDS011;3229;42.674;23.282;2022-10-20T14:05:21;4.00;;;2.97;;
6392;SDS011;3229;42.674;23.282;2022-10-20T14:07:50;3.57;;;3.30;;
6392;SDS011;3229;42.674;23.282;2022-10-20T14:10:30;3.88;;;2.80;;
6392;SDS011;3229;42.674;23.282;2022-10-20T14:13:05;3.30;;;3.00;;
6392;SDS011;3229;42.674;23.282;2022-10-20T14:15:36;3.47;;;3.00;;
6392;SDS011;3229;42.674;23.282;2022-10-20T14:18:04;3.20;;;2.90;;
6392;SDS011;3229;42.674;23.282;2022-10-20T14:20:33;3.80;;;3.00;;
6392;SDS011;3229;42.674;23.282;2022-10-20T14:23:02;3.70;;;3.20;;
6392;SDS011;3229;42.674;23.282;2022-10-20T14:25:32;3.30;;;3.00;;
6392;SDS011;3229;42.674;23.282;2022-10-20T14:27:59;3.50;;;3.20;;
6392;SDS011;3229;42.674;23.282;2022-10-20T14:30:26;4.60;;;3.43;;
6392;SDS011;3229;42.674;23.282;2022-10-20T14:32:54;3.20;;;2.90;;
6392;SDS011;3229;42.674;23.282;2022-10-20T14:35:22;4.17;;;2.80;;
6392;SDS011;3229;42.674;23.282;2022-10-20T14:37:57;4.53;;;3.27;;
6392;SDS011;3229;42.674;23.282;2022-10-20T14:40:27;5.03;;;3.00;;
6392;SDS011;3229;42.674;23.282;2022-10-20T14:43:01;3.20;;;2.90;;
6392;SDS011;3229;42.674;23.282;2022-10-20T14:45:30;5.17;;;3.23;;
6392;SDS011;3229;42.674;23.282;2022-10-20T14:47:57;3.17;;;2.87;;
6392;SDS011;3229;42.674;23.282;2022-10-20T14:50:30;3.13;;;2.77;;
6392;SDS011;3229;42.674;23.282;2022-10-20T14:53:14;4.57;;;3.30;;
6392;SDS011;3229;42.674;23.282;2022-10-20T14:55:53;4.10;;;3.17;;
6392;SDS011;3229;42.674;23.282;2022-10-20T14:58:27;3.10;;;2.90;;
6392;SDS011;3229;42.674;23.282;2022-10-20T15:01:12;5.03;;;3.00;;
6392;SDS011;3229;42.674;23.282;2022-10-20T15:03:40;5.47;;;2.80;;
6392;SDS011;3229;42.674;23.282;2022-10-20T15:06:07;3.83;;;3.37;;
6392;SDS011;3229;42.674;23.282;2022-10-20T15:08:37;3.37;;;3.07;;
6392;SDS011;3229;42.674;23.282;2022-10-20T15:11:16;4.20;;;3.40;;
6392;SDS011;3229;42.674;23.282;2022-10-20T15:13:49;3.97;;;3.67;;
6392;SDS011;3229;42.674;23.282;2022-10-20T15:16:30;5.80;;;3.43;;
6392;SDS011;3229;42.674;23.282;2022-10-20T15:22:00;5.20;;;3.90;;
6392;SDS011;3229;42.674;23.282;2022-10-20T15:24:33;6.40;;;3.83;;
6392;SDS011;3229;42.674;23.282;2022-10-20T15:27:00;6.90;;;4.50;;
6392;SDS011;3229;42.674;23.282;2022-10-20T15:29:31;7.47;;;4.33;;
6392;SDS011;3229;42.674;23.282;2022-10-20T15:32:00;14.27;;;6.33;;
6392;SDS011;3229;42.674;23.282;2022-10-20T15:34:27;10.70;;;5.20;;
6392;SDS011;3229;42.674;23.282;2022-10-20T15:36:54;13.70;;;5.83;;
6392;SDS011;3229;42.674;23.282;2022-10-20T15:39:20;16.23;;;6.37;;
6392;SDS011;3229;42.674;23.282;2022-10-20T15:41:47;13.00;;;6.00;;
6392;SDS011;3229;42.674;23.282;2022-10-20T15:44:15;13.97;;;5.97;;
6392;SDS011;3229;42.674;23.282;2022-10-20T15:46:45;15.13;;;6.30;;
6392;SDS011;3229;42.674;23.282;2022-10-20T15:49:12;17.03;;;6.77;;
6392;SDS011;3229;42.674;23.282;2022-10-20T15:51:40;14.07;;;6.77;;